sensor_id;sensor_type;location;lat;lon;timestamp;P1;durP1;ratioP1;P2;durP2;ratioP2
51491;SDS011;37569;50.548;8.778;2024-01-15T00:02:27;19.2;;;9.7;;
51491;SDS011;37569;50.548;8.778;2024-01-15T00:07:27;17.5;;;9.2;;
51491;SDS011;37569;50.548;8.778;2024-01-15T00:12:27;16.1;;;9;;
51491;SDS011;37569;50.548;8.778;2024-01-15T00:17:28;16.8;;;8.8;;
51491;SDS011;37569;50.548;8.778;2024-01-15T00:22:28;14.8;;;8.2;;
51491;SDS011;37569;50.548;8.778;2024-01-15T00:27:28;19.7;;;9.1;;
51491;SDS011;37569;50.548;8.778;2024-01-15T00:32:28;16.5;;;8.7;;
51491;SDS011;37569;50.548;8.778;2024-01-15T00:37:28;18.8;;;8.5;;
51491;SDS011;37569;50.548;8.778;2024-01-15T00:42:28;16.3;;;8.1;;
51491;SDS011;37569;50.548;8.778;2024-01-15T00:47:28;14.4;;;8;;
51491;SDS011;37569;50.548;8.778;2024-01-15T00:52:28;16;;;8.4;;
51491;SDS011;37569;50.548;8.778;2024-01-15T00:57:28;16.9;;;9.2;;
51491;SDS011;37569;50.548;8.778;2024-01-15T01:02:28;16.7;;;8.3;;
51491;SDS011;37569;50.548;8.778;2024-01-15T01:07:28;13.6;;;7.6;;
51491;SDS011;37569;50.548;8.778;2024-01-15T01:12:29;16.5;;;8.4;;
51491;SDS011;37569;50.548;8.778;2024-01-15T01:17:29;13.2;;;8.1;;
51491;SDS011;37569;50.548;8.778;2024-01-15T01:22:29;15.1;;;8.1;;
51491;SDS011;37569;50.548;8.778;2024-01-15T01:27:29;16.3;;;8.7;;
51491;SDS011;37569;50.548;8.778;2024-01-15T01:32:29;15.9;;;8;;
51491;SDS011;37569;50.548;8.778;2024-01-15T01:37:29;16.5;;;8.2;;
51491;SDS011;37569;50.548;8.778;2024-01-15T01:42:29;14.6;;;8;;
51491;SDS011;37569;50.548;8.778;2024-01-15T01:47:29;18.3;;;9.1;;
51491;SDS011;37569;50.548;8.778;2024-01-15T01:52:29;17.6;;;8.7;;
51491;SDS011;37569;50.548;8.778;2024-01-15T01:57:30;18.9;;;8.6;;
51491;SDS011;37569;50.548;8.778;2024-01-15T02:02:29;17.3;;;9;;
51491;SDS011;37569;50.548;8.778;2024-01-15T02:07:29;19.4;;;9.4;;
51491;SDS011;37569;50.548;8.778;2024-01-15T02:12:30;18.8;;;9.3;;
51491;SDS011;37569;50.548;8.778;2024-01-15T02:17:30;17.7;;;8.7;;
51491;SDS011;37569;50.548;8.778;2024-01-15T02:22:30;20.3;;;9.8;;
51491;SDS011;37569;50.548;8.778;2024-01-15T02:27:30;14.9;;;8.2;;
51491;SDS011;37569;50.548;8.778;2024-01-15T02:32:30;19.5;;;9.4;;
51491;SDS011;37569;50.548;8.778;2024-01-15T02:37:30;20.5;;;10.5;;
51491;SDS011;37569;50.548;8.778;2024-01-15T02:42:30;19.9;;;9.7;;
51491;SDS011;37569;50.548;8.778;2024-01-15T02:47:30;20.4;;;10.3;;
51491;SDS011;37569;50.548;8.778;2024-01-15T02:52:30;20.8;;;9.7;;
51491;SDS011;37569;50.548;8.778;2024-01-15T02:57:30;21.4;;;9.8;;
51491;SDS011;37569;50.548;8.778;2024-01-15T03:02:31;19.8;;;9;;
51491;SDS011;37569;50.548;8.778;2024-01-15T03:07:31;20.8;;;9.7;;
51491;SDS011;37569;50.548;8.778;2024-01-15T03:12:31;20.6;;;10.2;;
51491;SDS011;37569;50.548;8.778;2024-01-15T03:17:31;23;;;10.3;;
51491;SDS011;37569;50.548;8.778;2024-01-15T03:22:31;21.1;;;10.4;;
51491;SDS011;37569;50.548;8.778;2024-01-15T03:27:31;20.7;;;9.6;;
51491;SDS011;37569;50.548;8.778;2024-01-15T03:32:31;20.4;;;9.9;;
51491;SDS011;37569;50.548;8.778;2024-01-15T03:37:31;19.9;;;10.3;;
51491;SDS011;37569;50.548;8.778;2024-01-15T03:42:31;19.4;;;9.3;;
51491;SDS011;37569;50.548;8.778;2024-01-15T03:47:31;18.8;;;9.2;;
51491;SDS011;37569;50.548;8.778;2024-01-15T03:52:31;19.2;;;9.6;;
51491;SDS011;37569;50.548;8.778;2024-01-15T03:57:31;21;;;9.4;;
51491;SDS011;37569;50.548;8.778;2024-01-15T04:02:31;18.5;;;8.8;;
51491;SDS011;37569;50.548;8.778;2024-01-15T04:07:32;20.2;;;10;;
51491;SDS011;37569;50.548;8.778;2024-01-15T04:12:32;17.7;;;9.3;;
51491;SDS011;37569;50.548;8.778;2024-01-15T04:17:32;19.4;;;9.2;;
51491;SDS011;37569;50.548;8.778;2024-01-15T04:22:32;19.2;;;9.5;;
51491;SDS011;37569;50.548;8.778;2024-01-15T04:27:32;20.8;;;9.5;;
51491;SDS011;37569;50.548;8.778;2024-01-15T04:32:32;19;;;9.1;;
51491;SDS011;37569;50.548;8.778;2024-01-15T04:37:32;19.1;;;10.2;;
51491;SDS011;37569;50.548;8.778;2024-01-15T04:42:32;22.3;;;10.3;;
51491;SDS011;37569;50.548;8.778;2024-01-15T04:47:32;20.6;;;9.4;;
51491;SDS011;37569;50.548;8.778;2024-01-15T04:52:32;20.3;;;10.2;;
51491;SDS011;37569;50.548;8.778;2024-01-15T04:57:32;20.6;;;10.3;;
51491;SDS011;37569;50.548;8.778;2024-01-15T05:02:32;22.5;;;10.3;;
51491;SDS011;37569;50.548;8.778;2024-01-15T05:07:32;23.2;;;10.2;;
51491;SDS011;37569;50.548;8.778;2024-01-15T05:12:32;22.5;;;10.6;;
51491;SDS011;37569;50.548;8.778;2024-01-15T05:17:32;23.8;;;10.1;;
51491;SDS011;37569;50.548;8.778;2024-01-15T05:22:32;22.3;;;10.4;;
51491;SDS011;37569;50.548;8.778;2024-01-15T05:27:32;21.8;;;10.6;;
51491;SDS011;37569;50.548;8.778;2024-01-15T05:32:32;19.5;;;10;;
51491;SDS011;37569;50.548;8.778;2024-01-15T05:37:32;22.1;;;10;;
51491;SDS011;37569;50.548;8.778;2024-01-15T05:42:33;21.2;;;10.5;;
51491;SDS011;37569;50.548;8.778;2024-01-15T05:47:33;24.1;;;10.7;;
51491;SDS011;37569;50.548;8.778;2024-01-15T05:52:33;20.9;;;9.9;;
51491;SDS011;37569;50.548;8.778;2024-01-15T05:57:33;24.1;;;11.3;;
51491;SDS011;37569;50.548;8.778;2024-01-15T06:02:33;26.4;;;10.9;;
51491;SDS011;37569;50.548;8.778;2024-01-15T06:07:33;22.8;;;10.7;;
51491;SDS011;37569;50.548;8.778;2024-01-15T06:12:33;23.8;;;10.7;;
51491;SDS011;37569;50.548;8.778;2024-01-15T06:17:33;24.9;;;11.1;;
51491;SDS011;37569;50.548;8.778;2024-01-15T06:22:33;23.8;;;11.1;;
51491;SDS011;37569;50.548;8.778;2024-01-15T06:27:33;27.9;;;11.7;;
51491;SDS011;37569;50.548;8.778;2024-01-15T06:32:33;23.8;;;11.6;;
51491;SDS011;37569;50.548;8.778;2024-01-15T06:37:33;23.6;;;11.9;;
51491;SDS011;37569;50.548;8.778;2024-01-15T06:42:33;26.4;;;11.1;;
51491;SDS011;37569;50.548;8.778;2024-01-15T06:47:33;26.4;;;11.1;;
51491;SDS011;37569;50.548;8.778;2024-01-15T06:52:33;25.5;;;10.7;;
51491;SDS011;37569;50.548;8.778;2024-01-15T06:57:33;23;;;11;;
51491;SDS011;37569;50.548;8.778;2024-01-15T07:02:33;23.8;;;11;;
51491;SDS011;37569;50.548;8.778;2024-01-15T07:07:33;22.2;;;10.1;;
51491;SDS011;37569;50.548;8.778;2024-01-15T07:12:33;21;;;9.7;;
51491;SDS011;37569;50.548;8.778;2024-01-15T07:17:33;20.4;;;10;;
51491;SDS011;37569;50.548;8.778;2024-01-15T07:22:33;27.1;;;11.7;;
51491;SDS011;37569;50.548;8.778;2024-01-15T07:27:33;23.6;;;10.8;;
51491;SDS011;37569;50.548;8.778;2024-01-15T07:32:33;23;;;10.6;;
51491;SDS011;37569;50.548;8.778;2024-01-15T07:37:33;18.5;;;9.8;;
51491;SDS011;37569;50.548;8.778;2024-01-15T07:42:33;25.9;;;11;;
51491;SDS011;37569;50.548;8.778;2024-01-15T07:47:33;22.1;;;10.5;;
51491;SDS011;37569;50.548;8.778;2024-01-15T07:52:34;22;;;10.3;;
51491;SDS011;37569;50.548;8.778;2024-01-15T07:57:34;27.1;;;11.5;;
51491;SDS011;37569;50.548;8.778;2024-01-15T08:02:34;25.1;;;11.4;;
51491;SDS011;37569;50.548;8.778;2024-01-15T08:07:34;21.7;;;10.8;;
51491;SDS011;37569;50.548;8.778;2024-01-15T08:12:34;23.8;;;11.6;;
51491;SDS011;37569;50.548;8.778;2024-01-15T08:17:34;23.3;;;11.2;;
51491;SDS011;37569;50.548;8.778;2024-01-15T08:22:34;23.6;;;11.2;;
51491;SDS011;37569;50.548;8.778;2024-01-15T08:27:34;23.7;;;10.5;;
51491;SDS011;37569;50.548;8.778;2024-01-15T08:32:34;23;;;10.6;;
51491;SDS011;37569;50.548;8.778;2024-01-15T08:37:34;22.3;;;10.4;;
51491;SDS011;37569;50.548;8.778;2024-01-15T08:42:34;20.2;;;10.3;;
51491;SDS011;37569;50.548;8.778;2024-01-15T08:47:34;21.1;;;10.8;;
51491;SDS011;37569;50.548;8.778;2024-01-15T08:52:34;22.8;;;10.7;;
51491;SDS011;37569;50.548;8.778;2024-01-15T08:57:34;20.8;;;10.5;;
51491;SDS011;37569;50.548;8.778;2024-01-15T09:02:34;21.9;;;10.5;;
51491;SDS011;37569;50.548;8.778;2024-01-15T09:07:34;18.1;;;9.9;;
51491;SDS011;37569;50.548;8.778;2024-01-15T09:12:35;19.7;;;10.4;;
51491;SDS011;37569;50.548;8.778;2024-01-15T09:17:35;22;;;10.5;;
51491;SDS011;37569;50.548;8.778;2024-01-15T09:22:35;18.8;;;9.9;;
51491;SDS011;37569;50.548;8.778;2024-01-15T09:27:35;21.6;;;10;;
51491;SDS011;37569;50.548;8.778;2024-01-15T09:32:35;17.4;;;9.4;;
51491;SDS011;37569;50.548;8.778;2024-01-15T09:37:35;18.2;;;9.2;;
51491;SDS011;37569;50.548;8.778;2024-01-15T09:42:35;18.2;;;9.3;;
51491;SDS011;37569;50.548;8.778;2024-01-15T09:47:36;22.4;;;10.4;;
51491;SDS011;37569;50.548;8.778;2024-01-15T09:52:36;18.4;;;9.3;;
51491;SDS011;37569;50.548;8.778;2024-01-15T09:57:36;25.1;;;12.8;;
51491;SDS011;37569;50.548;8.778;2024-01-15T10:02:36;19.3;;;10.7;;
51491;SDS011;37569;50.548;8.778;2024-01-15T10:07:37;17.7;;;9.6;;
51491;SDS011;37569;50.548;8.778;2024-01-15T10:12:36;16.6;;;9.3;;
51491;SDS011;37569;50.548;8.778;2024-01-15T10:17:36;20.1;;;9.9;;
51491;SDS011;37569;50.548;8.778;2024-01-15T10:22:41;19.8;;;9.7;;
51491;SDS011;37569;50.548;8.778;2024-01-15T10:27:37;19.8;;;9.5;;
51491;SDS011;37569;50.548;8.778;2024-01-15T10:32:37;18.6;;;9.6;;
51491;SDS011;37569;50.548;8.778;2024-01-15T10:37:37;18.8;;;10.2;;
51491;SDS011;37569;50.548;8.778;2024-01-15T10:42:37;16.9;;;9.3;;
51491;SDS011;37569;50.548;8.778;2024-01-15T10:47:37;16.5;;;9.3;;
51491;SDS011;37569;50.548;8.778;2024-01-15T10:52:38;18.1;;;9.2;;
51491;SDS011;37569;50.548;8.778;2024-01-15T10:57:38;16.7;;;9.8;;
51491;SDS011;37569;50.548;8.778;2024-01-15T11:02:38;18.3;;;9.3;;
51491;SDS011;37569;50.548;8.778;2024-01-15T11:07:38;15;;;8.8;;
51491;SDS011;37569;50.548;8.778;2024-01-15T11:12:40;16.1;;;9.1;;
51491;SDS011;37569;50.548;8.778;2024-01-15T11:18:10;14.4;;;8.4;;
51491;SDS011;37569;50.548;8.778;2024-01-15T11:22:47;13.6;;;8.3;;
51491;SDS011;37569;50.548;8.778;2024-01-15T11:27:39;14.5;;;8.8;;
51491;SDS011;37569;50.548;8.778;2024-01-15T11:32:39;15.6;;;8.9;;
51491;SDS011;37569;50.548;8.778;2024-01-15T11:37:56;15.3;;;9;;
51491;SDS011;37569;50.548;8.778;2024-01-15T11:42:39;16.7;;;9.1;;
51491;SDS011;37569;50.548;8.778;2024-01-15T11:47:52;16;;;8.7;;
51491;SDS011;37569;50.548;8.778;2024-01-15T11:52:39;12.7;;;7.9;;
51491;SDS011;37569;50.548;8.778;2024-01-15T11:57:40;12.6;;;7.1;;
51491;SDS011;37569;50.548;8.778;2024-01-15T12:02:40;10.6;;;6;;
51491;SDS011;37569;50.548;8.778;2024-01-15T12:07:40;12.7;;;7.4;;
51491;SDS011;37569;50.548;8.778;2024-01-15T12:12:44;13.3;;;8.2;;
51491;SDS011;37569;50.548;8.778;2024-01-15T12:17:40;12.1;;;8.3;;
51491;SDS011;37569;50.548;8.778;2024-01-15T12:22:40;12.3;;;8.4;;
51491;SDS011;37569;50.548;8.778;2024-01-15T12:27:41;12.9;;;8;;
51491;SDS011;37569;50.548;8.778;2024-01-15T12:32:41;11.3;;;6.8;;
51491;SDS011;37569;50.548;8.778;2024-01-15T12:37:41;9.7;;;6.3;;
51491;SDS011;37569;50.548;8.778;2024-01-15T12:42:41;8.9;;;6.1;;
51491;SDS011;37569;50.548;8.778;2024-01-15T12:47:41;10.4;;;6.7;;
51491;SDS011;37569;50.548;8.778;2024-01-15T12:52:42;10.9;;;7.2;;
51491;SDS011;37569;50.548;8.778;2024-01-15T12:57:42;7.4;;;5.3;;
51491;SDS011;37569;50.548;8.778;2024-01-15T13:02:42;7.2;;;5;;
51491;SDS011;37569;50.548;8.778;2024-01-15T13:07:42;8;;;5.1;;
51491;SDS011;37569;50.548;8.778;2024-01-15T13:12:42;7.6;;;5.2;;
51491;SDS011;37569;50.548;8.778;2024-01-15T13:17:42;7.2;;;5.2;;
51491;SDS011;37569;50.548;8.778;2024-01-15T13:22:42;6.4;;;4.6;;
51491;SDS011;37569;50.548;8.778;2024-01-15T13:27:43;5.4;;;3.9;;
51491;SDS011;37569;50.548;8.778;2024-01-15T13:32:43;5;;;3.8;;
51491;SDS011;37569;50.548;8.778;2024-01-15T13:37:43;4.4;;;3;;
51491;SDS011;37569;50.548;8.778;2024-01-15T13:42:44;4.6;;;3.2;;
51491;SDS011;37569;50.548;8.778;2024-01-15T13:47:43;3.8;;;3;;
51491;SDS011;37569;50.548;8.778;2024-01-15T13:52:44;5.2;;;3;;
51491;SDS011;37569;50.548;8.778;2024-01-15T13:57:44;4.2;;;2.7;;
51491;SDS011;37569;50.548;8.778;2024-01-15T14:02:44;3.5;;;2.5;;
51491;SDS011;37569;50.548;8.778;2024-01-15T14:07:44;3.6;;;2.4;;
51491;SDS011;37569;50.548;8.778;2024-01-15T14:12:45;4.8;;;2.6;;
51491;SDS011;37569;50.548;8.778;2024-01-15T14:17:45;5.4;;;2.8;;
51491;SDS011;37569;50.548;8.778;2024-01-15T14:22:45;3.2;;;2.7;;
51491;SDS011;37569;50.548;8.778;2024-01-15T14:27:45;3.4;;;2.6;;
51491;SDS011;37569;50.548;8.778;2024-01-15T14:32:45;5.6;;;3.1;;
51491;SDS011;37569;50.548;8.778;2024-01-15T14:37:46;4.1;;;2.9;;
51491;SDS011;37569;50.548;8.778;2024-01-15T14:42:46;3.1;;;2.8;;
51491;SDS011;37569;50.548;8.778;2024-01-15T14:47:46;3.9;;;3;;
51491;SDS011;37569;50.548;8.778;2024-01-15T14:52:46;4.9;;;3.1;;
51491;SDS011;37569;50.548;8.778;2024-01-15T14:57:46;4.9;;;3.3;;
51491;SDS011;37569;50.548;8.778;2024-01-15T15:02:46;5.9;;;3.3;;
51491;SDS011;37569;50.548;8.778;2024-01-15T15:07:47;6.3;;;4.3;;
51491;SDS011;37569;50.548;8.778;2024-01-15T15:12:47;5.5;;;4.3;;
51491;SDS011;37569;50.548;8.778;2024-01-15T15:17:47;4.9;;;3.6;;
51491;SDS011;37569;50.548;8.778;2024-01-15T15:22:47;6.7;;;4.1;;
51491;SDS011;37569;50.548;8.778;2024-01-15T15:27:47;12.3;;;7.3;;
51491;SDS011;37569;50.548;8.778;2024-01-15T15:32:47;5.1;;;3.9;;
51491;SDS011;37569;50.548;8.778;2024-01-15T15:37:48;6.2;;;4;;
51491;SDS011;37569;50.548;8.778;2024-01-15T15:42:48;7.7;;;4.3;;
51491;SDS011;37569;50.548;8.778;2024-01-15T15:47:48;8.2;;;6.2;;
51491;SDS011;37569;50.548;8.778;2024-01-15T15:52:48;10;;;6.1;;
51491;SDS011;37569;50.548;8.778;2024-01-15T15:57:48;6.6;;;4.8;;
51491;SDS011;37569;50.548;8.778;2024-01-15T16:02:48;5.9;;;4.2;;
51491;SDS011;37569;50.548;8.778;2024-01-15T16:07:49;12.1;;;5.9;;
51491;SDS011;37569;50.548;8.778;2024-01-15T16:12:49;14;;;6.7;;
51491;SDS011;37569;50.548;8.778;2024-01-15T16:17:49;21.3;;;8.6;;
51491;SDS011;37569;50.548;8.778;2024-01-15T16:22:49;6.4;;;4.6;;
51491;SDS011;37569;50.548;8.778;2024-01-15T16:27:49;7.4;;;5.1;;
51491;SDS011;37569;50.548;8.778;2024-01-15T16:32:49;5.8;;;4.3;;
51491;SDS011;37569;50.548;8.778;2024-01-15T16:37:49;7.2;;;4.8;;
51491;SDS011;37569;50.548;8.778;2024-01-15T16:42:49;8.8;;;4.5;;
51491;SDS011;37569;50.548;8.778;2024-01-15T16:47:50;4.6;;;4;;
51491;SDS011;37569;50.548;8.778;2024-01-15T16:52:50;6.6;;;4.3;;
51491;SDS011;37569;50.548;8.778;2024-01-15T16:57:50;6.1;;;4.6;;
51491;SDS011;37569;50.548;8.778;2024-01-15T17:02:50;7.1;;;4.5;;
51491;SDS011;37569;50.548;8.778;2024-01-15T17:07:50;6.2;;;4.9;;
51491;SDS011;37569;50.548;8.778;2024-01-15T17:12:50;8.6;;;4.7;;
51491;SDS011;37569;50.548;8.778;2024-01-15T17:17:50;8;;;4.4;;
51491;SDS011;37569;50.548;8.778;2024-01-15T17:22:50;7.8;;;4.8;;
51491;SDS011;37569;50.548;8.778;2024-01-15T17:27:51;5.3;;;4.2;;
51491;SDS011;37569;50.548;8.778;2024-01-15T17:32:51;6.6;;;4.6;;
51491;SDS011;37569;50.548;8.778;2024-01-15T17:37:51;6.9;;;4.7;;
51491;SDS011;37569;50.548;8.778;2024-01-15T17:42:51;8.2;;;5.1;;
51491;SDS011;37569;50.548;8.778;2024-01-15T17:47:51;7.9;;;4.6;;
51491;SDS011;37569;50.548;8.778;2024-01-15T17:52:51;5.3;;;4.7;;
51491;SDS011;37569;50.548;8.778;2024-01-15T17:57:51;6;;;5;;
51491;SDS011;37569;50.548;8.778;2024-01-15T18:02:51;6.6;;;5;;
51491;SDS011;37569;50.548;8.778;2024-01-15T18:07:52;8.2;;;5.2;;
51491;SDS011;37569;50.548;8.778;2024-01-15T18:12:52;6.7;;;5;;
51491;SDS011;37569;50.548;8.778;2024-01-15T18:17:52;6.2;;;4.9;;
51491;SDS011;37569;50.548;8.778;2024-01-15T18:22:52;5.6;;;3.8;;
51491;SDS011;37569;50.548;8.778;2024-01-15T18:27:52;6.7;;;4.5;;
51491;SDS011;37569;50.548;8.778;2024-01-15T18:32:52;5;;;3.8;;
51491;SDS011;37569;50.548;8.778;2024-01-15T18:37:52;5.4;;;4;;
51491;SDS011;37569;50.548;8.778;2024-01-15T18:42:52;7;;;3.8;;
51491;SDS011;37569;50.548;8.778;2024-01-15T18:47:52;4.3;;;3.9;;
51491;SDS011;37569;50.548;8.778;2024-01-15T18:52:52;5.4;;;3.8;;
51491;SDS011;37569;50.548;8.778;2024-01-15T18:57:53;5.4;;;3.7;;
51491;SDS011;37569;50.548;8.778;2024-01-15T19:02:53;8.6;;;5;;
51491;SDS011;37569;50.548;8.778;2024-01-15T19:07:53;4.4;;;3.7;;
51491;SDS011;37569;50.548;8.778;2024-01-15T19:12:53;7.1;;;3.4;;
51491;SDS011;37569;50.548;8.778;2024-01-15T19:17:53;4.6;;;2.9;;
51491;SDS011;37569;50.548;8.778;2024-01-15T19:22:53;5.7;;;3.1;;
51491;SDS011;37569;50.548;8.778;2024-01-15T19:27:53;16.1;;;14;;
51491;SDS011;37569;50.548;8.778;2024-01-15T19:32:53;4.4;;;2.9;;
51491;SDS011;37569;50.548;8.778;2024-01-15T19:37:53;6.2;;;2.9;;
51491;SDS011;37569;50.548;8.778;2024-01-15T19:42:53;5.7;;;3.5;;
51491;SDS011;37569;50.548;8.778;2024-01-15T19:47:54;7.6;;;3.8;;
51491;SDS011;37569;50.548;8.778;2024-01-15T19:52:54;6.6;;;4.5;;
51491;SDS011;37569;50.548;8.778;2024-01-15T19:57:54;7.2;;;4.8;;
51491;SDS011;37569;50.548;8.778;2024-01-15T20:02:54;7.7;;;5;;
51491;SDS011;37569;50.548;8.778;2024-01-15T20:07:54;7.8;;;4.8;;
51491;SDS011;37569;50.548;8.778;2024-01-15T20:12:54;8.4;;;5.5;;
51491;SDS011;37569;50.548;8.778;2024-01-15T20:17:54;9.4;;;5;;
51491;SDS011;37569;50.548;8.778;2024-01-15T20:22:54;9.4;;;5.2;;
51491;SDS011;37569;50.548;8.778;2024-01-15T20:27:54;8.7;;;4.1;;
51491;SDS011;37569;50.548;8.778;2024-01-15T20:32:54;9.1;;;5.1;;
51491;SDS011;37569;50.548;8.778;2024-01-15T20:37:55;6.4;;;4.4;;
51491;SDS011;37569;50.548;8.778;2024-01-15T20:42:55;8;;;4.7;;
51491;SDS011;37569;50.548;8.778;2024-01-15T20:47:55;8.2;;;4;;
51491;SDS011;37569;50.548;8.778;2024-01-15T20:52:55;9.2;;;4.1;;
51491;SDS011;37569;50.548;8.778;2024-01-15T20:57:55;8.4;;;3.7;;
51491;SDS011;37569;50.548;8.778;2024-01-15T21:02:55;6.6;;;3.3;;
51491;SDS011;37569;50.548;8.778;2024-01-15T21:07:55;6;;;3.3;;
51491;SDS011;37569;50.548;8.778;2024-01-15T21:12:55;5.8;;;3.6;;
51491;SDS011;37569;50.548;8.778;2024-01-15T21:17:56;6.8;;;3.2;;
51491;SDS011;37569;50.548;8.778;2024-01-15T21:22:56;5.9;;;3.5;;
51491;SDS011;37569;50.548;8.778;2024-01-15T21:27:56;5.3;;;3.6;;
51491;SDS011;37569;50.548;8.778;2024-01-15T21:32:56;7;;;3;;
51491;SDS011;37569;50.548;8.778;2024-01-15T21:37:56;5.1;;;3.2;;
51491;SDS011;37569;50.548;8.778;2024-01-15T21:42:56;6.2;;;3.5;;
51491;SDS011;37569;50.548;8.778;2024-01-15T21:47:56;6.2;;;3.3;;
51491;SDS011;37569;50.548;8.778;2024-01-15T21:52:57;5.5;;;3;;
51491;SDS011;37569;50.548;8.778;2024-01-15T21:57:57;5.3;;;3.3;;
51491;SDS011;37569;50.548;8.778;2024-01-15T22:02:57;8.6;;;3.3;;
51491;SDS011;37569;50.548;8.778;2024-01-15T22:07:57;8.3;;;3.5;;
51491;SDS011;37569;50.548;8.778;2024-01-15T22:12:57;6.9;;;3.4;;
51491;SDS011;37569;50.548;8.778;2024-01-15T22:17:57;7.2;;;3.2;;
51491;SDS011;37569;50.548;8.778;2024-01-15T22:22:57;6.9;;;3.2;;
51491;SDS011;37569;50.548;8.778;2024-01-15T22:27:58;7.2;;;3.4;;
51491;SDS011;37569;50.548;8.778;2024-01-15T22:32:58;7.2;;;3.4;;
51491;SDS011;37569;50.548;8.778;2024-01-15T22:37:58;7.5;;;3.5;;
51491;SDS011;37569;50.548;8.778;2024-01-15T22:42:58;7.1;;;3.8;;
51491;SDS011;37569;50.548;8.778;2024-01-15T22:47:58;7.1;;;3.6;;
51491;SDS011;37569;50.548;8.778;2024-01-15T22:52:58;7.5;;;3.6;;
51491;SDS011;37569;50.548;8.778;2024-01-15T22:57:58;10.6;;;3.9;;
51491;SDS011;37569;50.548;8.778;2024-01-15T23:02:58;7.8;;;3.6;;
51491;SDS011;37569;50.548;8.778;2024-01-15T23:07:59;8.1;;;3.5;;
51491;SDS011;37569;50.548;8.778;2024-01-15T23:12:59;8.3;;;4;;
51491;SDS011;37569;50.548;8.778;2024-01-15T23:17:59;7.4;;;3.6;;
51491;SDS011;37569;50.548;8.778;2024-01-15T23:22:59;6.3;;;3.6;;
51491;SDS011;37569;50.548;8.778;2024-01-15T23:27:59;10.2;;;4.2;;
51491;SDS011;37569;50.548;8.778;2024-01-15T23:32:59;9.7;;;3.5;;
51491;SDS011;37569;50.548;8.778;2024-01-15T23:37:59;6.7;;;3.4;;
51491;SDS011;37569;50.548;8.778;2024-01-15T23:42:59;10.6;;;3.9;;
51491;SDS011;37569;50.548;8.778;2024-01-15T23:48:00;7.2;;;3.6;;
51491;SDS011;37569;50.548;8.778;2024-01-15T23:53:00;9.2;;;3.6;;
51491;SDS011;37569;50.548;8.778;2024-01-15T23:58:00;8.9;;;3.7;;
